createdAt,value
2023-05-17T00:00:47.669Z,8.71
2023-05-17T00:01:47.724Z,8.66
2023-05-17T00:02:47.645Z,8.69
2023-05-17T00:03:47.626Z,8.63
2023-05-17T00:04:47.749Z,8.63
2023-05-17T00:05:47.641Z,8.60
2023-05-17T00:06:47.584Z,8.55
2023-05-17T00:07:47.571Z,8.53
2023-05-17T00:08:50.564Z,8.53
2023-05-17T00:09:50.589Z,8.51
2023-05-17T00:10:47.524Z,8.48
2023-05-17T00:11:47.551Z,8.45
2023-05-17T00:12:47.506Z,8.38
2023-05-17T00:13:47.486Z,8.37
2023-05-17T00:14:47.483Z,8.36
2023-05-17T00:15:47.456Z,8.31
2023-05-17T00:16:47.464Z,8.30
2023-05-17T00:17:47.482Z,8.28
2023-05-17T00:18:47.542Z,8.24
2023-05-17T00:19:47.408Z,8.23
2023-05-17T00:20:47.394Z,8.23
2023-05-17T00:21:47.412Z,8.19
2023-05-17T00:22:47.372Z,8.18
2023-05-17T00:23:47.347Z,8.15
2023-05-17T00:24:47.340Z,8.10
2023-05-17T00:25:47.399Z,8.08
2023-05-17T00:26:47.311Z,8.03
2023-05-17T00:27:47.345Z,8.03
2023-05-17T00:28:50.283Z,8.00
2023-05-17T00:29:50.270Z,8.00
2023-05-17T00:30:47.254Z,7.98
2023-05-17T00:31:47.238Z,7.98
2023-05-17T00:32:47.304Z,7.95
2023-05-17T00:33:47.241Z,7.93
2023-05-17T00:34:47.232Z,7.93
2023-05-17T00:35:47.184Z,7.90
2023-05-17T00:36:47.165Z,7.88
2023-05-17T00:37:47.170Z,7.87
2023-05-17T00:38:47.186Z,7.85
2023-05-17T00:39:47.121Z,7.85
2023-05-17T00:40:47.111Z,7.83
2023-05-17T00:41:47.129Z,7.82
2023-05-17T00:42:47.082Z,7.82
2023-05-17T00:43:47.073Z,7.80
2023-05-17T00:44:47.063Z,7.83
2023-05-17T00:45:47.045Z,7.87
2023-05-17T00:46:47.052Z,7.90
2023-05-17T00:47:47.060Z,7.90
2023-05-17T00:48:50.035Z,7.91
2023-05-17T00:49:50.015Z,7.91
2023-05-17T00:50:46.987Z,7.94
2023-05-17T00:51:46.963Z,7.97
2023-05-17T00:52:46.959Z,8.00
2023-05-17T00:53:46.961Z,8.01
2023-05-17T00:54:46.954Z,8.00
2023-05-17T00:55:46.901Z,7.98
2023-05-17T00:56:46.932Z,7.98
2023-05-17T00:57:46.873Z,8.01
2023-05-17T00:58:46.924Z,8.01
2023-05-17T00:59:46.859Z,8.03
2023-05-17T01:00:46.839Z,8.09
2023-05-17T01:01:46.841Z,8.12
2023-05-17T01:02:46.865Z,8.18
2023-05-17T01:03:46.959Z,8.23
2023-05-17T01:04:46.870Z,8.24
2023-05-17T01:05:46.769Z,8.26
2023-05-17T01:06:46.769Z,8.26
2023-05-17T01:07:46.735Z,8.27
2023-05-17T01:08:49.736Z,8.27
2023-05-17T01:09:49.744Z,8.27
2023-05-17T01:10:46.711Z,8.26
2023-05-17T01:11:46.690Z,8.24
2023-05-17T01:12:46.677Z,8.24
2023-05-17T01:13:46.713Z,8.23
2023-05-17T01:14:46.651Z,8.18
2023-05-17T01:15:46.638Z,8.15
2023-05-17T01:16:46.628Z,8.13
2023-05-17T01:17:46.680Z,8.10
2023-05-17T01:18:46.844Z,8.10
2023-05-17T01:19:46.702Z,8.09
2023-05-17T01:20:46.568Z,8.06
2023-05-17T01:21:46.551Z,8.06
2023-05-17T01:22:46.545Z,8.01
2023-05-17T01:23:46.531Z,8.01
2023-05-17T01:24:46.543Z,8.00
2023-05-17T01:25:46.495Z,7.98
2023-05-17T01:26:46.487Z,7.97
2023-05-17T01:27:46.464Z,7.95
2023-05-17T01:28:49.460Z,7.91
2023-05-17T01:29:49.469Z,7.90
2023-05-17T01:30:46.430Z,7.87
2023-05-17T01:31:46.425Z,7.85
2023-05-17T01:32:46.434Z,7.83
2023-05-17T01:33:46.497Z,7.80
2023-05-17T01:34:46.400Z,7.79
2023-05-17T01:35:46.365Z,7.77
2023-05-17T01:36:46.355Z,7.76
2023-05-17T01:37:46.329Z,7.73
2023-05-17T01:38:46.321Z,7.73
2023-05-17T01:39:46.326Z,7.70
2023-05-17T01:40:46.293Z,7.67
2023-05-17T01:41:46.278Z,7.61
2023-05-17T01:42:46.253Z,7.63
2023-05-17T01:43:46.239Z,7.60
2023-05-17T01:44:46.255Z,7.58
2023-05-17T01:45:46.223Z,7.58
2023-05-17T01:46:46.243Z,7.58
2023-05-17T01:47:46.236Z,7.57
2023-05-17T01:48:49.202Z,7.57
2023-05-17T01:49:49.175Z,7.57
2023-05-17T01:50:46.153Z,7.58
2023-05-17T01:51:46.178Z,7.58
2023-05-17T01:52:46.126Z,7.60
2023-05-17T01:53:46.136Z,7.60
2023-05-17T01:54:46.109Z,7.60
2023-05-17T01:55:46.086Z,7.57
2023-05-17T01:56:46.132Z,7.58
2023-05-17T01:57:46.052Z,7.57
2023-05-17T01:58:46.046Z,7.57
2023-05-17T01:59:46.031Z,7.57
2023-05-17T02:00:46.017Z,7.58
2023-05-17T02:01:46.020Z,7.58
2023-05-17T02:02:46.045Z,7.58
2023-05-17T02:03:45.994Z,7.60
2023-05-17T02:04:45.997Z,7.61
2023-05-17T02:05:45.945Z,7.61
2023-05-17T02:06:45.944Z,7.66
2023-05-17T02:07:45.984Z,7.67
2023-05-17T02:08:48.925Z,7.69
2023-05-17T02:09:48.894Z,7.70
2023-05-17T02:10:45.872Z,7.69
2023-05-17T02:11:45.869Z,7.69
2023-05-17T02:12:45.857Z,7.72
2023-05-17T02:13:45.872Z,7.75
2023-05-17T02:14:45.835Z,7.72
2023-05-17T02:15:45.811Z,7.72
2023-05-17T02:16:45.809Z,7.70
2023-05-17T02:17:45.999Z,7.70
2023-05-17T02:18:45.879Z,7.70
2023-05-17T02:19:45.761Z,7.70
2023-05-17T02:20:45.758Z,7.73
2023-05-17T02:21:45.732Z,7.73
2023-05-17T02:22:45.760Z,7.75
2023-05-17T02:23:45.707Z,7.75
2023-05-17T02:24:45.701Z,7.75
2023-05-17T02:25:45.672Z,7.73
2023-05-17T02:26:45.665Z,7.75
2023-05-17T02:27:45.667Z,7.73
2023-05-17T02:28:48.665Z,7.73
2023-05-17T02:29:48.657Z,7.70
2023-05-17T02:30:45.621Z,7.70
2023-05-17T02:31:45.589Z,7.63
2023-05-17T02:32:45.692Z,7.63
2023-05-17T02:33:45.615Z,7.63
2023-05-17T02:34:45.588Z,7.60
2023-05-17T02:35:45.540Z,7.58
2023-05-17T02:36:45.533Z,7.57
2023-05-17T02:37:45.515Z,7.54
2023-05-17T02:38:45.499Z,7.51
2023-05-17T02:39:45.506Z,7.50
2023-05-17T02:40:45.476Z,7.48
2023-05-17T02:41:45.470Z,7.45
2023-05-17T02:42:45.447Z,7.42
2023-05-17T02:43:45.466Z,7.39
2023-05-17T02:44:45.435Z,7.36
2023-05-17T02:45:45.406Z,7.32
2023-05-17T02:46:45.408Z,7.31
2023-05-17T02:47:45.496Z,7.29
2023-05-17T02:48:48.388Z,7.25
2023-05-17T02:49:48.356Z,7.25
2023-05-17T02:50:45.363Z,7.24
2023-05-17T02:51:45.350Z,7.23
2023-05-17T02:52:45.307Z,7.23
2023-05-17T02:53:45.289Z,7.21
2023-05-17T02:54:45.277Z,7.24
2023-05-17T02:55:45.273Z,7.25
2023-05-17T02:56:45.285Z,7.24
2023-05-17T02:57:45.268Z,7.24
2023-05-17T02:58:45.222Z,7.24
2023-05-17T02:59:45.221Z,7.23
2023-05-17T03:00:45.194Z,7.21
2023-05-17T03:01:45.219Z,7.21
2023-05-17T03:02:45.329Z,7.18
2023-05-17T03:03:45.308Z,7.17
2023-05-17T03:04:45.186Z,7.17
2023-05-17T03:05:45.136Z,7.17
2023-05-17T03:06:45.140Z,7.15
2023-05-17T03:07:45.122Z,7.14
2023-05-17T03:08:48.122Z,7.13
2023-05-17T03:09:48.103Z,7.11
2023-05-17T03:10:45.070Z,7.10
2023-05-17T03:11:45.062Z,7.10
2023-05-17T03:12:45.059Z,7.10
2023-05-17T03:13:45.046Z,7.10
2023-05-17T03:14:45.006Z,7.13
2023-05-17T03:15:45.005Z,7.15
2023-05-17T03:16:44.974Z,7.18
2023-05-17T03:17:45.064Z,7.21
2023-05-17T03:18:45.146Z,7.24
2023-05-17T03:19:44.991Z,7.31
2023-05-17T03:20:44.907Z,7.32
2023-05-17T03:21:44.911Z,7.33
2023-05-17T03:22:44.895Z,7.40
2023-05-17T03:23:44.909Z,7.42
2023-05-17T03:24:44.868Z,7.45
2023-05-17T03:25:44.903Z,7.45
2023-05-17T03:26:44.833Z,7.43
2023-05-17T03:27:44.958Z,7.45
2023-05-17T03:28:47.809Z,7.48
2023-05-17T03:29:47.798Z,7.50
2023-05-17T03:30:44.806Z,7.51
2023-05-17T03:31:44.794Z,7.51
2023-05-17T03:32:44.832Z,7.54
2023-05-17T03:33:44.866Z,7.56
2023-05-17T03:34:44.730Z,7.56
2023-05-17T03:35:44.710Z,7.57
2023-05-17T03:36:44.757Z,7.61
2023-05-17T03:37:44.689Z,7.61
2023-05-17T03:38:44.681Z,7.66
2023-05-17T03:39:44.667Z,7.66
2023-05-17T03:40:44.646Z,7.70
2023-05-17T03:41:44.636Z,7.70
2023-05-17T03:42:44.672Z,7.73
2023-05-17T03:43:44.606Z,7.73
2023-05-17T03:44:44.587Z,7.73
2023-05-17T03:45:44.581Z,7.76
2023-05-17T03:46:44.602Z,7.79
2023-05-17T03:47:44.571Z,7.76
2023-05-17T03:48:47.580Z,7.76
2023-05-17T03:49:47.529Z,7.76
2023-05-17T03:50:44.513Z,7.77
2023-05-17T03:51:44.585Z,7.77
2023-05-17T03:52:44.478Z,7.79
2023-05-17T03:53:44.480Z,7.80
2023-05-17T03:54:46.264Z,7.85
2023-05-17T03:55:44.446Z,7.85
2023-05-17T03:56:44.454Z,7.88
2023-05-17T03:57:44.424Z,7.91
2023-05-17T03:58:44.397Z,7.90
2023-05-17T03:59:44.391Z,7.91
2023-05-17T04:00:44.384Z,7.91
2023-05-17T04:01:44.402Z,7.90
2023-05-17T04:02:44.375Z,7.90
2023-05-17T04:03:44.397Z,7.87
2023-05-17T04:04:44.338Z,7.87
2023-05-17T04:05:44.306Z,7.87
2023-05-17T04:06:44.299Z,7.85
2023-05-17T04:07:44.308Z,7.88
2023-05-17T04:08:47.356Z,7.90
2023-05-17T04:09:47.264Z,7.93
2023-05-17T04:10:44.238Z,8.00
2023-05-17T04:11:44.262Z,8.00
2023-05-17T04:12:44.224Z,8.03
2023-05-17T04:13:44.198Z,8.09
2023-05-17T04:14:44.188Z,8.13
2023-05-17T04:15:44.179Z,8.15
2023-05-17T04:16:44.206Z,8.18
2023-05-17T04:17:44.161Z,8.20
2023-05-17T04:18:44.185Z,8.27
2023-05-17T04:19:44.204Z,8.31
2023-05-17T04:20:44.102Z,8.34
2023-05-17T04:21:44.108Z,8.37
2023-05-17T04:22:44.104Z,8.37
2023-05-17T04:23:44.091Z,8.38
2023-05-17T04:24:44.053Z,8.38
2023-05-17T04:25:44.099Z,8.37
2023-05-17T04:26:44.025Z,8.34
2023-05-17T04:27:44.005Z,8.37
2023-05-17T04:28:46.995Z,8.38
2023-05-17T04:29:46.992Z,8.41
2023-05-17T04:30:43.978Z,8.38
2023-05-17T04:31:43.991Z,8.36
2023-05-17T04:32:43.965Z,8.36
2023-05-17T04:33:43.980Z,8.34
2023-05-17T04:34:43.913Z,8.37
2023-05-17T04:35:43.928Z,8.37
2023-05-17T04:36:43.879Z,8.38
2023-05-17T04:37:43.869Z,8.44
2023-05-17T04:38:43.862Z,8.48
2023-05-17T04:39:43.870Z,8.73
2023-05-17T04:40:43.854Z,8.78
2023-05-17T04:41:43.824Z,9.06
2023-05-17T04:42:43.826Z,9.08
2023-05-17T04:43:43.814Z,9.46
2023-05-17T04:44:43.808Z,9.54
2023-05-17T04:45:43.762Z,9.51
2023-05-17T04:46:43.755Z,9.62
2023-05-17T04:47:43.842Z,9.95
2023-05-17T04:48:46.811Z,10.56
2023-05-17T04:49:46.749Z,10.90
2023-05-17T04:50:43.691Z,11.23
2023-05-17T04:51:43.679Z,11.59
2023-05-17T04:52:43.659Z,11.86
2023-05-17T04:53:43.727Z,12.12
2023-05-17T04:54:43.643Z,11.97
2023-05-17T04:55:43.629Z,11.91
2023-05-17T04:56:43.613Z,11.50
2023-05-17T04:57:43.598Z,10.97
2023-05-17T04:58:43.578Z,10.67
2023-05-17T04:59:43.602Z,10.33
2023-05-17T05:00:43.584Z,10.20
2023-05-17T05:01:43.550Z,10.16
2023-05-17T05:02:43.564Z,10.07
2023-05-17T05:03:43.574Z,9.92
2023-05-17T05:04:43.560Z,9.77
2023-05-17T05:05:43.518Z,9.66
2023-05-17T05:06:43.474Z,9.55
2023-05-17T05:07:43.455Z,9.50
2023-05-17T05:08:46.446Z,9.48
2023-05-17T05:09:46.437Z,9.50
2023-05-17T05:10:43.467Z,9.41
2023-05-17T05:11:43.417Z,9.29
2023-05-17T05:12:43.400Z,9.23
2023-05-17T05:13:43.382Z,9.28
2023-05-17T05:14:43.384Z,9.25
2023-05-17T05:15:43.356Z,9.19
2023-05-17T05:16:43.374Z,9.14
2023-05-17T05:17:43.404Z,9.08
2023-05-17T05:18:43.494Z,9.06
2023-05-17T05:19:43.356Z,9.06
2023-05-17T05:20:43.284Z,9.04
2023-05-17T05:21:43.277Z,9.08
2023-05-17T05:22:43.258Z,9.11
2023-05-17T05:23:43.309Z,9.13
2023-05-17T05:24:43.229Z,9.19
2023-05-17T05:25:43.231Z,9.18
2023-05-17T05:26:43.207Z,9.16
2023-05-17T05:27:43.183Z,9.16
2023-05-17T05:28:46.225Z,9.21
2023-05-17T05:29:46.173Z,9.36
2023-05-17T05:30:43.144Z,9.37
2023-05-17T05:31:43.137Z,9.41
2023-05-17T05:32:43.202Z,9.54
2023-05-17T05:33:43.205Z,10.09
2023-05-17T05:34:43.117Z,11.11
2023-05-17T05:35:43.115Z,11.18
2023-05-17T05:36:43.064Z,11.45
2023-05-17T05:37:43.041Z,11.73
2023-05-17T05:38:43.040Z,11.81
2023-05-17T05:39:43.022Z,12.47
2023-05-17T05:40:43.046Z,12.20
2023-05-17T05:41:43.000Z,12.47
2023-05-17T05:42:42.980Z,12.80
2023-05-17T05:43:42.973Z,13.03
2023-05-17T05:44:42.989Z,13.11
2023-05-17T05:45:42.999Z,13.15
2023-05-17T05:46:42.923Z,13.59
2023-05-17T05:47:42.974Z,13.86
2023-05-17T05:48:45.906Z,14.15
2023-05-17T05:49:45.893Z,13.85
2023-05-17T05:50:42.882Z,13.39
2023-05-17T05:51:42.901Z,12.50
2023-05-17T05:52:42.839Z,11.59
2023-05-17T05:53:42.840Z,11.15
2023-05-17T05:54:42.829Z,10.94
2023-05-17T05:55:42.802Z,10.78
2023-05-17T05:56:42.791Z,10.71
2023-05-17T05:57:42.824Z,10.60
2023-05-17T05:58:42.749Z,10.38
2023-05-17T05:59:42.739Z,10.23
2023-05-17T06:00:42.782Z,10.16
2023-05-17T06:01:42.725Z,10.05
2023-05-17T06:02:42.784Z,10.16
2023-05-17T06:03:42.685Z,10.35
2023-05-17T06:04:45.569Z,10.38
2023-05-17T06:05:42.745Z,10.25
2023-05-17T06:06:42.799Z,10.16
2023-05-17T06:07:42.636Z,10.10
2023-05-17T06:08:45.651Z,10.13
2023-05-17T06:09:45.609Z,10.53
2023-05-17T06:10:42.584Z,10.40
2023-05-17T06:11:42.576Z,10.15
2023-05-17T06:12:42.602Z,9.98
2023-05-17T06:13:42.567Z,9.94
2023-05-17T06:14:42.532Z,9.95
2023-05-17T06:15:42.526Z,9.87
2023-05-17T06:16:42.522Z,9.82
2023-05-17T06:17:42.618Z,9.82
2023-05-17T06:18:42.590Z,9.83
2023-05-17T06:19:42.495Z,9.83
2023-05-17T06:20:42.460Z,9.77
2023-05-17T06:21:42.462Z,9.72
2023-05-17T06:22:42.463Z,9.72
2023-05-17T06:23:42.418Z,9.65
2023-05-17T06:24:42.460Z,9.64
2023-05-17T06:25:42.395Z,9.64
2023-05-17T06:26:42.402Z,9.64
2023-05-17T06:27:42.365Z,9.65
2023-05-17T06:28:45.367Z,9.61
2023-05-17T06:29:45.381Z,9.64
2023-05-17T06:30:42.364Z,9.62
2023-05-17T06:31:42.345Z,9.59
2023-05-17T06:32:42.324Z,9.59
2023-05-17T06:33:42.324Z,9.51
2023-05-17T06:34:42.261Z,9.54
2023-05-17T06:35:54.622Z,9.56
2023-05-17T06:36:43.278Z,9.55
2023-05-17T06:37:42.218Z,9.48
2023-05-17T06:38:42.210Z,9.55
2023-05-17T06:39:42.679Z,9.58
2023-05-17T06:40:42.201Z,9.62
2023-05-17T06:41:42.184Z,9.65
2023-05-17T06:42:42.163Z,9.65
2023-05-17T06:43:42.163Z,9.66
2023-05-17T06:44:42.125Z,9.72
2023-05-17T06:45:42.135Z,9.72
2023-05-17T06:46:42.108Z,9.68
2023-05-17T06:47:42.113Z,9.62
2023-05-17T06:48:45.598Z,9.59
2023-05-17T06:49:45.076Z,9.62
2023-05-17T06:50:42.038Z,9.61
2023-05-17T06:51:42.041Z,9.64
2023-05-17T06:52:42.005Z,9.68
2023-05-17T06:53:42.010Z,9.69
2023-05-17T06:54:42.012Z,9.72
2023-05-17T06:55:41.973Z,9.76
2023-05-17T06:56:41.950Z,9.77
2023-05-17T06:57:41.937Z,9.69
2023-05-17T06:58:41.951Z,9.64
2023-05-17T06:59:41.954Z,9.65
2023-05-17T07:00:41.913Z,9.68
2023-05-17T07:01:41.909Z,9.72
2023-05-17T07:02:41.926Z,9.68
2023-05-17T07:03:41.946Z,9.68
2023-05-17T07:04:42.072Z,9.65
2023-05-17T07:05:41.856Z,9.62
2023-05-17T07:06:41.809Z,9.62
2023-05-17T07:07:41.812Z,9.64
2023-05-17T07:08:44.781Z,9.62
2023-05-17T07:09:44.810Z,9.62
2023-05-17T07:10:41.769Z,9.62
2023-05-17T07:11:41.737Z,9.64
2023-05-17T07:12:41.911Z,9.76
2023-05-17T07:13:41.719Z,9.86
2023-05-17T07:14:41.752Z,10.01
2023-05-17T07:15:41.701Z,10.23
2023-05-17T07:16:41.676Z,10.41
2023-05-17T07:17:41.712Z,10.46
2023-05-17T07:18:41.701Z,10.56
2023-05-17T07:19:41.920Z,10.56
2023-05-17T07:20:41.647Z,10.63
2023-05-17T07:21:41.612Z,10.67
2023-05-17T07:22:42.315Z,10.72
2023-05-17T07:23:41.578Z,10.82
2023-05-17T07:24:41.599Z,10.82
2023-05-17T07:25:41.571Z,10.92
2023-05-17T07:26:41.542Z,10.99
2023-05-17T07:27:41.532Z,11.11
2023-05-17T07:28:44.522Z,11.22
2023-05-17T07:29:44.562Z,11.29
2023-05-17T07:30:41.495Z,11.35
2023-05-17T07:31:41.480Z,11.48
2023-05-17T07:32:41.514Z,11.55
2023-05-17T07:33:41.444Z,11.63
2023-05-17T07:34:41.473Z,11.60
2023-05-17T07:35:41.453Z,11.25
2023-05-17T07:36:41.421Z,11.02
2023-05-17T07:37:41.386Z,10.76
2023-05-17T07:38:41.382Z,10.59
2023-05-17T07:39:41.353Z,10.37
2023-05-17T07:40:41.357Z,10.20
2023-05-17T07:41:41.385Z,10.23
2023-05-17T07:42:41.325Z,10.22
2023-05-17T07:43:41.300Z,10.19
2023-05-17T07:44:41.292Z,10.12
2023-05-17T07:45:41.327Z,10.12
2023-05-17T07:46:41.288Z,10.12
2023-05-17T07:47:41.354Z,10.04
2023-05-17T07:48:44.317Z,10.05
2023-05-17T07:49:44.245Z,10.17
2023-05-17T07:50:41.222Z,10.37
2023-05-17T07:51:41.191Z,10.53
2023-05-17T07:52:41.198Z,10.76
2023-05-17T07:53:41.344Z,10.89
2023-05-17T07:54:41.185Z,10.84
2023-05-17T07:55:41.334Z,10.90
2023-05-17T07:56:41.120Z,10.96
2023-05-17T07:57:41.100Z,11.02
2023-05-17T07:58:41.098Z,11.00
2023-05-17T07:59:41.200Z,11.08
2023-05-17T08:00:41.124Z,11.14
2023-05-17T08:01:41.055Z,11.40
2023-05-17T08:02:41.288Z,11.66
2023-05-17T08:03:41.024Z,11.84
2023-05-17T08:04:41.065Z,11.87
2023-05-17T08:05:41.084Z,11.80
2023-05-17T08:06:41.025Z,11.70
2023-05-17T08:07:40.989Z,11.65
2023-05-17T08:08:43.962Z,11.65
2023-05-17T08:09:43.935Z,11.66
2023-05-17T08:10:40.923Z,11.60
2023-05-17T08:11:40.913Z,11.54
2023-05-17T08:12:40.919Z,11.50
2023-05-17T08:13:40.890Z,11.69
2023-05-17T08:14:41.085Z,11.95
2023-05-17T08:15:40.859Z,12.02
2023-05-17T08:16:40.842Z,11.88
2023-05-17T08:17:40.868Z,11.63
2023-05-17T08:18:40.895Z,11.47
2023-05-17T08:19:40.878Z,11.36
2023-05-17T08:20:40.789Z,11.35
2023-05-17T08:21:40.954Z,11.29
2023-05-17T08:22:40.815Z,11.08
2023-05-17T08:23:40.757Z,10.64
2023-05-17T08:24:40.759Z,10.42
2023-05-17T08:25:40.709Z,10.30
2023-05-17T08:26:40.691Z,10.30
2023-05-17T08:27:40.684Z,10.35
2023-05-17T08:28:43.693Z,10.40
2023-05-17T08:29:43.649Z,10.48
2023-05-17T08:30:40.659Z,10.59
2023-05-17T08:31:40.674Z,10.69
2023-05-17T08:32:40.730Z,10.63
2023-05-17T08:33:40.668Z,10.72
2023-05-17T08:34:40.585Z,10.78
2023-05-17T08:35:40.650Z,10.82
2023-05-17T08:36:40.621Z,11.02
2023-05-17T08:37:40.530Z,11.23
2023-05-17T08:38:40.541Z,11.35
2023-05-17T08:39:40.528Z,11.35
2023-05-17T08:40:40.496Z,11.40
2023-05-17T08:41:40.467Z,11.40
2023-05-17T08:42:40.457Z,11.44
2023-05-17T08:43:40.464Z,11.45
2023-05-17T08:44:40.468Z,11.60
2023-05-17T08:45:40.416Z,11.69
2023-05-17T08:46:40.417Z,11.62
2023-05-17T08:47:40.443Z,11.77
2023-05-17T08:48:43.430Z,11.83
2023-05-17T08:49:44.397Z,11.91
2023-05-17T08:50:40.349Z,11.88
2023-05-17T08:51:40.356Z,11.95
2023-05-17T08:52:40.393Z,12.03
2023-05-17T08:53:40.306Z,12.20
2023-05-17T08:54:40.283Z,12.39
2023-05-17T08:55:41.970Z,12.36
2023-05-17T08:56:40.299Z,12.22
2023-05-17T08:57:40.281Z,12.10
2023-05-17T08:58:55.750Z,12.09
2023-05-17T08:59:41.213Z,11.70
2023-05-17T09:00:40.209Z,11.65
2023-05-17T09:01:40.187Z,11.60
2023-05-17T09:02:40.297Z,11.48
2023-05-17T09:03:40.371Z,11.57
2023-05-17T09:04:40.216Z,11.78
2023-05-17T09:05:40.210Z,11.95
2023-05-17T09:06:40.133Z,12.27
2023-05-17T09:07:40.112Z,12.43
2023-05-17T09:08:43.121Z,12.58
2023-05-17T09:09:43.064Z,12.76
2023-05-17T09:10:40.073Z,12.97
2023-05-17T09:11:40.042Z,13.18
2023-05-17T09:12:40.033Z,13.08
2023-05-17T09:13:40.035Z,12.85
2023-05-17T09:14:40.083Z,12.73
2023-05-17T09:15:40.003Z,12.76
2023-05-17T09:16:39.979Z,12.75
2023-05-17T09:17:39.997Z,12.80
2023-05-17T09:18:40.044Z,13.04
2023-05-17T09:19:40.102Z,13.15
2023-05-17T09:20:39.955Z,13.11
2023-05-17T09:21:39.901Z,12.86
2023-05-17T09:22:39.895Z,12.68
2023-05-17T09:23:39.910Z,12.85
2023-05-17T09:24:39.860Z,13.01
2023-05-17T09:25:39.855Z,13.12
2023-05-17T09:26:39.836Z,13.19
2023-05-17T09:27:39.837Z,13.19
2023-05-17T09:28:42.856Z,13.15
2023-05-17T09:29:42.807Z,12.82
2023-05-17T09:30:39.788Z,12.60
2023-05-17T09:31:39.759Z,12.49
2023-05-17T09:32:39.803Z,12.40
2023-05-17T09:33:39.758Z,12.45
2023-05-17T09:34:39.788Z,12.46
2023-05-17T09:35:39.712Z,12.53
2023-05-17T09:36:39.765Z,12.62
2023-05-17T09:37:39.691Z,12.76
2023-05-17T09:38:39.671Z,12.73
2023-05-17T09:39:39.662Z,12.61
2023-05-17T09:40:39.707Z,12.54
2023-05-17T09:41:39.625Z,12.64
2023-05-17T09:42:39.638Z,12.55
2023-05-17T09:43:39.601Z,12.53
2023-05-17T09:44:39.590Z,12.47
2023-05-17T09:45:39.572Z,12.21
2023-05-17T09:46:39.599Z,12.04
2023-05-17T09:47:39.619Z,12.15
2023-05-17T09:48:42.574Z,12.39
2023-05-17T09:49:42.527Z,12.72
2023-05-17T09:50:39.511Z,12.85
2023-05-17T09:51:39.493Z,13.03
2023-05-17T09:52:39.504Z,13.13
2023-05-17T09:53:39.465Z,12.90
2023-05-17T09:54:39.450Z,12.68
2023-05-17T09:55:39.554Z,12.49
2023-05-17T09:56:39.502Z,12.47
2023-05-17T09:57:39.412Z,12.40
2023-05-17T09:58:39.394Z,12.37
2023-05-17T09:59:39.406Z,11.99
2023-05-17T10:00:39.412Z,11.83
2023-05-17T10:01:39.435Z,11.78
2023-05-17T10:02:39.490Z,11.86
2023-05-17T10:03:39.494Z,11.95
2023-05-17T10:04:39.538Z,12.12
2023-05-17T10:05:39.380Z,12.18
2023-05-17T10:06:46.542Z,12.25
2023-05-17T10:07:40.275Z,12.35
2023-05-17T10:08:42.263Z,12.45
2023-05-17T10:09:42.278Z,12.42
2023-05-17T10:10:39.233Z,12.40
2023-05-17T10:11:39.214Z,12.24
2023-05-17T10:12:39.206Z,12.24
2023-05-17T10:13:39.195Z,12.02
2023-05-17T10:14:39.273Z,11.86
2023-05-17T10:15:39.160Z,11.73
2023-05-17T10:16:39.158Z,11.75
2023-05-17T10:17:39.191Z,11.88
2023-05-17T10:18:39.354Z,12.06
2023-05-17T10:19:39.253Z,11.99
2023-05-17T10:20:39.120Z,11.91
2023-05-17T10:21:39.072Z,12.04
2023-05-17T10:22:39.078Z,12.02
2023-05-17T10:23:39.083Z,11.94
2023-05-17T10:24:39.046Z,12.12
2023-05-17T10:25:39.023Z,12.24
2023-05-17T10:26:39.013Z,12.06
2023-05-17T10:27:39.030Z,12.04
2023-05-17T10:28:41.992Z,12.06
2023-05-17T10:29:41.973Z,11.86
2023-05-17T10:30:38.961Z,11.57
2023-05-17T10:31:38.971Z,11.26
2023-05-17T10:32:38.966Z,11.22
2023-05-17T10:33:39.017Z,11.15
2023-05-17T10:34:38.911Z,11.14
2023-05-17T10:35:39.358Z,11.14
2023-05-17T10:36:38.919Z,11.18
2023-05-17T10:37:38.894Z,11.29
2023-05-17T10:38:42.864Z,11.51
2023-05-17T10:39:39.141Z,11.54
2023-05-17T10:40:38.815Z,11.57
2023-05-17T10:41:38.807Z,11.47
2023-05-17T10:42:38.795Z,11.51
2023-05-17T10:43:38.827Z,11.59
2023-05-17T10:44:38.761Z,11.81
2023-05-17T10:45:38.746Z,11.91
2023-05-17T10:46:38.740Z,11.94
2023-05-17T10:47:38.736Z,11.95
2023-05-17T10:48:41.771Z,11.87
2023-05-17T10:49:41.779Z,11.94
2023-05-17T10:50:41.035Z,11.99
2023-05-17T10:51:39.664Z,12.10
2023-05-17T10:52:38.659Z,12.20
2023-05-17T10:53:38.640Z,12.00
2023-05-17T10:54:38.659Z,12.20
2023-05-17T10:55:38.633Z,12.49
2023-05-17T10:56:38.608Z,12.49
2023-05-17T10:57:50.614Z,12.39
2023-05-17T10:58:39.598Z,12.22
2023-05-17T10:59:38.549Z,12.12
2023-05-17T11:00:38.544Z,12.22
2023-05-17T11:01:39.197Z,12.32
2023-05-17T11:02:38.565Z,12.18
2023-05-17T11:03:38.491Z,12.07
2023-05-17T11:04:38.593Z,12.22
2023-05-17T11:05:38.611Z,12.46
2023-05-17T11:06:38.605Z,12.95
2023-05-17T11:07:38.442Z,13.47
2023-05-17T11:08:41.432Z,13.41
2023-05-17T11:09:41.472Z,13.22
2023-05-17T11:10:38.404Z,13.16
2023-05-17T11:11:38.406Z,12.94
2023-05-17T11:12:40.243Z,12.80
2023-05-17T11:13:38.371Z,12.36
2023-05-17T11:14:38.382Z,12.07
2023-05-17T11:15:38.345Z,11.94
2023-05-17T11:16:38.324Z,12.03
2023-05-17T11:17:38.325Z,12.03
2023-05-17T11:18:39.790Z,12.03
2023-05-17T11:19:38.434Z,12.03
2023-05-17T11:20:38.969Z,12.09
2023-05-17T11:21:38.248Z,12.21
2023-05-17T11:22:38.244Z,12.28
2023-05-17T11:23:38.222Z,12.24
2023-05-17T11:24:38.215Z,12.42
2023-05-17T11:25:38.223Z,12.47
2023-05-17T11:26:38.209Z,12.54
2023-05-17T11:27:38.174Z,12.68
2023-05-17T11:28:41.159Z,12.64
2023-05-17T11:29:41.156Z,12.62
2023-05-17T11:30:38.168Z,12.49
2023-05-17T11:31:38.117Z,12.47
2023-05-17T11:32:38.135Z,12.58
2023-05-17T11:33:38.243Z,12.75
2023-05-17T11:34:38.198Z,12.62
2023-05-17T11:35:38.078Z,12.36
2023-05-17T11:36:38.071Z,12.40
2023-05-17T11:37:38.036Z,12.40
2023-05-17T11:38:38.076Z,12.27
2023-05-17T11:39:38.018Z,12.06
2023-05-17T11:40:37.995Z,11.91
2023-05-17T11:41:37.986Z,11.95
2023-05-17T11:42:37.967Z,11.83
2023-05-17T11:43:37.959Z,11.72
2023-05-17T11:44:37.961Z,11.57
2023-05-17T11:45:37.928Z,11.54
2023-05-17T11:46:37.907Z,11.54
2023-05-17T11:47:37.964Z,11.35
2023-05-17T11:48:40.933Z,11.27
2023-05-17T11:49:40.890Z,11.14
2023-05-17T11:50:37.857Z,11.19
2023-05-17T11:51:37.854Z,11.17
2023-05-17T11:52:37.876Z,11.10
2023-05-17T11:53:37.808Z,11.05
2023-05-17T11:54:37.812Z,11.02
2023-05-17T11:55:37.800Z,11.12
2023-05-17T11:56:43.541Z,11.27
2023-05-17T11:57:40.506Z,11.45
2023-05-17T11:58:37.743Z,11.68
2023-05-17T11:59:37.735Z,11.94
2023-05-17T12:00:37.730Z,12.06
2023-05-17T12:01:37.705Z,12.12
2023-05-17T12:02:37.747Z,12.15
2023-05-17T12:03:37.678Z,12.12
2023-05-17T12:04:37.878Z,12.29
2023-05-17T12:05:37.651Z,12.55
2023-05-17T12:06:37.672Z,12.85
2023-05-17T12:07:37.764Z,12.91
2023-05-17T12:08:40.624Z,12.90
2023-05-17T12:09:40.986Z,12.80
2023-05-17T12:10:37.625Z,12.64
2023-05-17T12:11:37.569Z,12.46
2023-05-17T12:12:37.547Z,12.31
2023-05-17T12:13:37.537Z,12.24
2023-05-17T12:14:37.520Z,12.06
2023-05-17T12:15:37.552Z,11.81
2023-05-17T12:16:37.520Z,11.65
2023-05-17T12:17:37.633Z,11.62
2023-05-17T12:18:37.523Z,11.54
2023-05-17T12:19:37.700Z,11.63
2023-05-17T12:20:37.438Z,11.69
2023-05-17T12:21:37.486Z,11.88
2023-05-17T12:22:37.410Z,12.00
2023-05-17T12:23:37.405Z,11.95
2023-05-17T12:24:37.418Z,12.06
2023-05-17T12:25:37.370Z,12.32
2023-05-17T12:26:37.353Z,12.45
2023-05-17T12:27:37.408Z,12.57
2023-05-17T12:28:40.333Z,12.68
2023-05-17T12:29:40.325Z,12.54
2023-05-17T12:30:37.302Z,12.42
2023-05-17T12:31:37.293Z,12.43
2023-05-17T12:32:37.368Z,12.61
2023-05-17T12:33:37.379Z,12.73
2023-05-17T12:34:37.246Z,12.72
2023-05-17T12:35:37.234Z,12.65
2023-05-17T12:36:37.220Z,12.57
2023-05-17T12:37:37.203Z,12.49
2023-05-17T12:38:37.189Z,12.50
2023-05-17T12:39:37.228Z,12.50
2023-05-17T12:40:37.185Z,12.43
2023-05-17T12:41:37.155Z,12.28
2023-05-17T12:42:37.129Z,12.29
2023-05-17T12:43:37.133Z,12.28
2023-05-17T12:44:37.119Z,12.32
2023-05-17T12:45:37.156Z,12.49
2023-05-17T12:46:37.089Z,12.61
2023-05-17T12:47:37.081Z,12.78
2023-05-17T12:48:40.122Z,12.86
2023-05-17T12:49:40.082Z,12.76
2023-05-17T12:50:37.020Z,12.60
2023-05-17T12:51:37.060Z,12.61
2023-05-17T12:52:37.011Z,12.75
2023-05-17T12:53:36.986Z,12.82
2023-05-17T12:54:36.974Z,12.76
2023-05-17T12:55:36.952Z,12.75
2023-05-17T12:56:36.933Z,12.72
2023-05-17T12:57:36.975Z,12.79
2023-05-17T12:58:36.915Z,12.83
2023-05-17T12:59:36.942Z,12.70
2023-05-17T13:00:36.875Z,12.82
2023-05-17T13:01:36.868Z,12.86
2023-05-17T13:02:36.950Z,12.91
2023-05-17T13:03:37.063Z,12.97
2023-05-17T13:04:36.993Z,12.97